Latest Weather Observations for Georgetown Airport

IDQ60801

Issued at 11:42 pm EST Friday 16 November 2018 (issued every 10 minutes, with the page automatically refreshed every 10 minutes)

About weather observations | Map of weather stations | Latest weather observations for QLD | Other Formats
Station Details ID: 030124 Name: GEORGETOWN AIRPORT Lat: -18.30 Lon: 143.53 Height: 301.77 m
Data from the previous 72 hours. | See also: Recent months at Georgetown Airport
Date/Time
EST
Temp
°C
App
Temp
°C
Dew
Point
°C
Rel
Hum
%
Delta-T
°C
Wind Press
QNH
hPa
Press
MSL
hPa
Rain since
9am
mm
Dir  Spd
km/h
Gust
km/h
Spd
kts
Gust
kts
16/11:30pm 28.7 26.1 10.8 33 10.3 ENE 15 24 8 13 1012.6 1010.4 0.0
16/11:00pm 29.4 26.1 9.5 29 11.3 E 17 26 9 14 1012.9 1010.7 0.0
16/10:30pm 30.2 26.1 8.0 25 12.3 E 19 32 10 17 1012.9 1010.7 0.0
16/10:00pm 30.7 26.4 7.2 23 12.9 E 19 28 10 15 1012.8 1010.6 0.0
16/09:30pm 31.3 27.0 7.7 23 13.1 E 20 35 11 19 1012.4 1010.1 0.0
16/09:00pm 32.1 28.1 9.0 24 13.2 E 20 32 11 17 1012.0 1009.7 0.0
16/08:30pm 32.3 29.3 9.2 24 13.2 E 15 22 8 12 1011.6 1009.3 0.0
16/08:00pm 32.7 30.1 9.5 24 13.4 E 13 20 7 11 1011.3 1009.0 0.0
16/07:30pm 32.8 30.7 8.3 22 13.8 E 9 17 5 9 1010.7 1008.5 0.0
16/07:00pm 33.5 31.2 7.5 20 14.6 ESE 9 15 5 8 1010.3 1008.1 0.0
16/06:30pm 34.3 31.8 8.1 20 14.9 E 11 17 6 9 1010.0 1007.8 0.0
16/06:00pm 35.1 30.8 7.2 18 15.7 ESE 19 28 10 15 1009.7 1007.5 0.0
16/05:30pm 35.5 32.9 7.6 18 15.8 SE 11 20 6 11 1009.5 1007.2 0.0
16/05:00pm 35.5 31.9 8.3 19 15.6 ESE 17 26 9 14 1009.3 1007.0 0.0
16/04:30pm 36.5 32.3 7.5 17 16.5 E 19 30 10 16 1009.2 1006.9 0.0
16/04:00pm 35.5 31.9 8.3 19 15.6 ESE 17 30 9 16 1009.5 1007.2 0.0
16/03:30pm 37.2 33.9 8.1 17 16.7 SE 15 24 8 13 1009.7 1007.5 0.0
16/03:00pm 36.9 33.0 7.0 16 16.9 ESE 17 32 9 17 1009.9 1007.7 0.0
16/02:30pm 37.8 33.7 7.7 16 17.2 ESE 19 30 10 16 1010.1 1007.9 0.0
16/02:00pm 37.5 33.7 7.4 16 17.2 E 17 33 9 18 1010.6 1008.4 0.0
16/01:30pm 36.5 33.5 9.2 19 15.9 SE 15 30 8 16 1011.3 1009.0 0.0
16/01:00pm 35.0 32.4 10.8 23 14.3 ESE 15 28 8 15 1012.0 1009.7 0.0
16/12:30pm 34.8 33.5 11.2 24 14.1 ESE 9 17 5 9 1012.7 1010.5 0.0
16/12:00pm 33.7 31.2 10.9 25 13.5 NE 15 26 8 14 1013.4 1011.2 0.0
16/11:30am 33.6 32.4 11.5 26 13.2 E 9 17 5 9 1014.1 1011.9 0.0
16/11:00am 32.2 31.4 12.9 31 11.7 E 9 22 5 12 1014.8 1012.5 0.0
16/10:30am 31.4 29.2 12.2 30 11.5 ESE 15 20 8 11 1015.4 1013.1 0.0
16/10:00am 29.8 28.1 12.3 34 10.4 NE 13 20 7 11 1015.9 1013.7 0.0
16/09:30am 29.3 26.6 11.8 34 10.3 NNE 17 28 9 15 1016.2 1014.0 0.0
16/09:00am 28.7 26.5 12.2 36 9.7 ENE 15 24 8 13 1016.4 1014.2 0.0
16/08:30am 28.1 26.4 12.5 38 9.2 NE 13 20 7 11 1016.4 1014.2 0.0
16/08:00am 26.8 25.5 12.5 41 8.4 NE 11 20 6 11 1016.4 1014.2 0.0
16/07:30am 26.0 24.3 12.5 43 7.9 NNE 13 17 7 9 1016.5 1014.3 0.0
16/07:00am 25.2 24.0 12.8 46 7.3 NNE 11 15 6 8 1016.3 1014.1 0.0
16/06:30am 24.3 23.7 13.5 51 6.4 N 9 13 5 7 1015.8 1013.6 0.0
16/06:00am 22.3 22.2 13.9 59 5.0 N 7 9 4 5 1015.4 1013.1 0.0
16/05:30am 21.9 21.3 13.5 59 4.9 N 9 9 5 5 1014.7 1012.4 0.0
16/05:00am 21.7 22.7 13.1 58 5.0 CALM 0 0 0 0 1014.2 1012.0 0.0
16/04:30am 22.9 22.4 12.8 53 5.9 ENE 7 9 4 5 1013.8 1011.6 0.0
16/04:00am 23.2 23.3 12.8 52 6.0 NNE 4 6 2 3 1013.6 1011.4 0.0
16/03:30am 24.2 23.5 13.1 50 6.5 ENE 9 11 5 6 1013.3 1011.1 0.0
16/03:00am 24.8 23.7 13.0 47 6.9 ENE 11 20 6 11 1013.2 1011.0 0.0
16/02:30am 25.3 24.2 13.2 47 7.1 NE 11 17 6 9 1013.2 1011.0 0.0
16/02:00am 25.8 24.4 13.3 46 7.4 ENE 13 20 7 11 1013.0 1010.8 0.0
16/01:30am 26.1 24.3 13.2 44 7.6 NE 15 22 8 12 1013.0 1010.8 0.0
16/01:00am 26.7 24.9 14.5 47 7.4 ENE 17 24 9 13 1013.0 1010.8 0.0
16/12:30am 27.4 26.1 15.7 48 7.3 ENE 17 26 9 14 1013.3 1011.1 0.0
16/12:00am 28.4 26.7 15.7 46 7.9 ENE 19 28 10 15 1013.5 1011.3 0.0
 
Date/Time
EST
Temp
°C
App
Temp
°C
Dew
Point
°C
Rel
Hum
%
Delta-T
°C
Wind Press
QNH
hPa
Press
MSL
hPa
Rain since
9am
mm
Dir  Spd
km/h
Gust
km/h
Spd
kts
Gust
kts
15/11:30pm 29.3 27.3 15.4 42 8.6 ENE 20 33 11 18 1013.6 1011.4 0.0
15/11:00pm 30.1 27.8 14.2 38 9.7 ENE 19 30 10 16 1013.6 1011.4 0.0
15/10:30pm 30.6 28.5 12.5 33 10.8 E 15 20 8 11 1013.5 1011.3 0.0
15/10:00pm 31.3 28.8 12.2 31 11.4 E 17 28 9 15 1013.1 1010.9 0.0
15/09:30pm 31.6 29.7 11.9 30 11.7 ENE 13 22 7 12 1012.7 1010.5 0.0
15/09:00pm 30.2 29.3 11.2 31 11.1 ESE 7 7 4 4 1012.3 1010.0 0.0
15/08:30pm 31.6 30.6 10.9 28 12.1 ESE 7 9 4 5 1012.2 1009.9 0.0
15/08:00pm 32.5 31.0 10.5 26 12.8 ESE 9 11 5 6 1012.1 1009.8 0.0
15/07:30pm 33.3 31.8 10.6 25 13.3 ESE 9 17 5 9 1011.9 1009.6 0.0
15/07:00pm 33.9 31.5 9.9 23 14.0 ESE 13 19 7 10 1011.5 1009.2 0.0
15/06:30pm 34.6 31.7 9.8 22 14.4 E 15 26 8 14 1011.0 1008.7 0.0
15/06:00pm 35.5 32.8 9.1 20 15.3 SE 13 24 7 13 1010.5 1008.3 0.0
15/05:30pm 35.4 32.5 9.7 21 15.0 ESE 15 26 8 14 1010.4 1008.2 0.0
15/05:00pm 35.6 33.2 9.9 21 15.1 ESE 13 20 7 11 1010.2 1008.0 0.0
15/04:30pm 36.3 33.1 9.8 20 15.6 SE 17 26 9 14 1010.2 1008.0 0.0
15/04:00pm 35.7 33.5 10.7 22 14.8 SSE 13 24 7 13 1010.4 1008.2 0.0
15/03:30pm 35.9 33.4 10.9 22 14.9 SE 15 20 8 11 1010.9 1008.6 0.0
15/03:00pm 36.2 33.5 10.4 21 15.3 SE 15 22 8 12 1011.1 1008.8 0.0
15/02:30pm 35.6 34.1 10.6 22 14.8 E 9 19 5 10 1011.7 1009.4 0.0
15/02:00pm 35.2 33.8 10.9 23 14.4 ESE 9 26 5 14 1012.1 1009.8 0.0
15/01:30pm 36.5 34.7 12.0 23 14.9 ESE 13 24 7 13 1012.5 1010.2 0.0
15/01:00pm 34.0 32.7 11.2 25 13.5 SE 9 22 5 12 1013.1 1010.9 0.0
15/12:30pm 34.1 32.8 12.4 26 13.1 E 11 24 6 13 1013.7 1011.5 0.0
15/12:00pm 33.5 32.0 13.0 29 12.5 NE 13 24 7 13 1014.4 1012.1 0.0
15/11:30am 32.4 31.1 13.6 32 11.5 ESE 13 24 7 13 1014.9 1012.6 0.0
15/11:00am 31.1 29.3 13.4 34 10.7 NE 15 22 8 12 1015.6 1013.4 0.0
15/10:30am 30.6 29.9 14.3 37 10.0 ESE 11 20 6 11 1016.3 1014.1 0.0
15/10:00am 30.1 29.1 14.6 39 9.5 ENE 13 20 7 11 1016.6 1014.4 0.0
15/09:30am 29.0 28.1 14.8 42 8.7 ENE 13 26 7 14 1016.9 1014.7 0.0
15/09:00am 28.4 26.5 15.3 45 8.1 ENE 19 28 10 15 1017.2 1015.0 0.0
15/08:30am 27.2 25.3 15.2 47 7.4 ENE 19 26 10 14 1017.2 1015.0 0.0
15/08:00am 26.0 23.9 15.1 51 6.6 ENE 20 30 11 16 1017.1 1014.9 0.0
15/07:30am 25.8 23.6 14.9 51 6.6 ENE 20 30 11 16 1016.8 1014.6 0.0
15/07:00am 25.0 21.7 15.0 53 6.1 ENE 26 37 14 20 1016.3 1014.1 0.0
15/06:30am 24.6 22.2 14.4 53 6.1 ENE 20 30 11 16 1016.0 1013.8 0.0
15/06:00am 24.2 22.3 14.3 54 5.9 NE 17 22 9 12 1015.3 1013.0 0.0
15/05:30am 24.1 22.2 14.2 54 5.9 NE 17 24 9 13 1014.9 1012.6 0.0
15/05:00am 24.0 23.1 13.8 53 6.1 NNE 11 15 6 8 1014.2 1012.0 0.0
15/04:30am 24.5 23.1 13.4 50 6.6 NNE 13 19 7 10 1013.4 1011.2 0.0
15/04:00am 24.4 23.2 12.7 48 6.8 NNE 11 15 6 8 1012.9 1010.7 0.0
15/03:30am 24.7 23.9 13.0 48 6.9 NE 9 13 5 7 1012.7 1010.5 0.0
15/03:00am 25.2 24.6 13.4 48 7.0 NNE 9 13 5 7 1012.7 1010.5 0.0
15/02:30am 25.7 24.7 13.5 46 7.3 NNE 11 20 6 11 1012.4 1010.1 0.0
15/02:00am 26.2 24.5 13.7 46 7.5 NE 15 17 8 9 1012.2 1009.9 0.0
15/01:30am 26.6 24.9 14.7 48 7.2 NE 17 22 9 12 1012.2 1009.9 0.0
15/01:00am 27.1 25.5 15.1 47 7.4 ENE 17 24 9 13 1012.5 1010.2 0.0
15/12:30am 27.9 26.6 15.9 48 7.5 NE 17 24 9 13 1012.5 1010.2 0.0
15/12:00am 28.5 27.2 15.8 46 7.9 NE 17 22 9 12 1012.8 1010.6 0.0
 
Date/Time
EST
Temp
°C
App
Temp
°C
Dew
Point
°C
Rel
Hum
%
Delta-T
°C
Wind Press
QNH
hPa
Press
MSL
hPa
Rain since
9am
mm
Dir  Spd
km/h
Gust
km/h
Spd
kts
Gust
kts
14/11:30pm 29.0 26.8 15.9 45 8.2 NE 22 32 12 17 1012.3 1010.0 0.0
14/11:00pm 29.5 27.7 15.6 43 8.7 ENE 19 28 10 15 1012.5 1010.2 0.0
14/10:30pm 30.3 28.9 15.6 41 9.2 E 17 30 9 16 1012.1 1009.8 0.0
14/10:00pm 31.6 28.4 14.3 35 10.7 ENE 24 35 13 19 1011.9 1009.6 0.0
14/09:30pm 32.3 31.8 12.0 29 12.1 E 6 7 3 4 1011.2 1008.9 0.0
14/09:00pm 31.7 31.2 12.5 31 11.5 SSE 7 9 4 5 1011.2 1008.9 0.0
14/08:30pm 31.3 31.8 11.7 30 11.6 CALM 0 0 0 0 1011.0 1008.7 0.0
14/08:00pm 31.4 30.9 10.7 28 12.1 E 4 6 2 3 1010.6 1008.4 0.0
14/07:30pm 32.9 31.7 10.3 25 13.2 E 7 9 4 5 1010.3 1008.1 0.0
14/07:00pm 33.8 32.3 10.4 24 13.7 E 9 11 5 6 1010.2 1008.0 0.0
14/06:30pm 34.4 33.2 10.3 23 14.1 ESE 7 9 4 5 1010.0 1007.8 0.0
14/06:00pm 35.5 34.2 11.2 23 14.5 S 9 13 5 7 1009.9 1007.7 0.0
14/05:30pm 35.8 34.5 10.1 21 15.1 ESE 7 13 4 7 1009.6 1007.4 0.0
14/05:00pm 36.8 34.8 10.2 20 15.8 SE 11 20 6 11 1009.5 1007.2 0.0
14/04:30pm 36.1 34.5 10.3 21 15.2 SSW 9 13 5 7 1009.5 1007.2 0.0
14/04:00pm 36.8 33.7 10.2 20 15.8 SSW 17 24 9 13 1009.5 1007.2 0.0
14/03:30pm 35.4 33.5 10.4 22 14.7 SSE 11 22 6 12 1009.7 1007.5 0.0
14/03:00pm 36.5 34.6 10.6 21 15.4 ESE 11 20 6 11 1009.7 1007.5 0.0
14/02:30pm 36.0 34.6 10.9 22 15.0 NNE 9 17 5 9 1010.0 1007.8 0.0
14/02:00pm 35.3 34.3 12.3 25 14.0 E 9 15 5 8 1010.6 1008.4 0.0
14/01:30pm 34.6 33.8 12.9 27 13.2 SE 9 17 5 9 1011.2 1008.9 0.0
14/01:00pm 33.3 32.2 11.8 27 12.9 S 9 17 5 9 1011.8 1009.5 0.0
14/12:30pm 32.8 31.8 12.4 29 12.3 NE 9 20 5 11 1012.2 1009.9 0.0
14/12:00pm 31.9 30.1 12.2 30 11.8 ENE 13 20 7 11 1012.8 1010.6 0.0
14/11:30am 32.2 29.7 12.4 30 11.9 ENE 17 30 9 16 1013.3 1011.1 0.0
14/11:00am 31.3 29.5 12.2 31 11.4 E 13 20 7 11 1013.8 1011.6 0.0
14/10:30am 30.2 27.4 12.6 34 10.5 NE 19 28 10 15 1014.2 1012.0 0.0
14/10:00am 29.0 27.2 13.2 37 9.5 E 15 26 8 14 1014.8 1012.5 0.0
14/09:30am 28.5 26.5 12.8 38 9.3 ENE 15 24 8 13 1015.1 1012.8 0.0
14/09:00am 27.3 24.7 13.3 42 8.3 ENE 19 28 10 15 1015.1 1012.8 0.0
14/08:30am 26.0 24.6 13.5 46 7.4 ENE 13 20 7 11 1015.4 1013.1 0.0
14/08:00am 25.5 25.0 13.7 48 7.0 ENE 9 19 5 10 1015.9 1013.7 0.0
14/07:30am 24.5 23.4 13.1 49 6.7 E 11 15 6 8 1015.7 1013.5 0.0
14/07:00am 23.6 23.5 13.8 54 5.8 E 7 11 4 6 1015.9 1013.7 0.0
14/06:30am 22.5 22.8 14.4 60 4.8 E 6 7 3 4 1015.6 1013.4 0.0
14/06:00am 20.2 21.2 13.2 64 4.0 CALM 0 0 0 0 1015.1 1012.8 0.0
14/05:30am 20.5 21.3 12.7 61 4.5 CALM 0 0 0 0 1014.8 1012.5 0.0
14/05:00am 21.4 21.5 12.8 58 5.0 ENE 4 7 2 4 1014.5 1012.2 0.0
14/04:30am 21.9 21.0 12.7 56 5.3 N 9 13 5 7 1013.9 1011.7 0.0
14/04:00am 22.1 21.6 12.1 53 5.7 NNW 6 7 3 4 1013.7 1011.5 0.0
14/03:30am 22.8 21.4 12.1 51 6.1 NE 11 15 6 8 1012.8 1010.6 0.0
14/03:00am 22.9 21.0 11.9 50 6.3 NE 13 15 7 8 1012.7 1010.5 0.0
14/02:30am 23.4 21.9 11.8 48 6.6 NE 11 15 6 8 1012.6 1010.4 0.0
14/02:00am 23.6 21.6 11.6 47 6.9 NE 13 19 7 10 1012.5 1010.2 0.0
14/01:30am 24.3 22.3 11.6 45 7.3 NE 13 15 7 8 1012.5 1010.2 0.0
14/01:00am 24.7 22.7 11.6 44 7.5 NNE 13 17 7 9 1012.6 1010.4 0.0
14/12:30am 25.1 23.4 11.3 42 7.9 NE 11 17 6 9 1012.6 1010.4 0.0
14/12:00am 25.7 23.7 11.5 41 8.2 NE 13 22 7 12 1012.7 1010.5 0.0

Other Formats:

Comma delimited format used in spreadsheet applications
http://www.bom.gov.au/fwo/IDQ60801/IDQ60801.94274.axf

JavaScript Object Notation format (JSON) in row-major order
http://www.bom.gov.au/fwo/IDQ60801/IDQ60801.94274.json